Time;durP1;ratioP1;P1;durP2;ratioP2;P2;SDS_P1;SDS_P2;PMS_P1;PMS_P2;Temp;Humidity;BMP_temperature;BMP_pressure;BME280_temperature;BME280_humidity;BME280_pressure;Samples;Min_cycle;Max_cycle;Signal;HPM_P1;HPM_P2
2022/02/14 00:01:07;;;;;;;7.03;5.30;;;;;;;3.96;68.08;152380.03;5123120;27;20440;-77
2022/02/14 00:03:42;;;;;;;6.70;4.60;;;;;;;3.99;71.21;152387.75;5109917;28;20550;-76
2022/02/14 00:06:18;;;;;;;5.37;4.70;;;;;;;3.98;67.20;152385.16;5112802;27;20471;-77
2022/02/14 00:08:55;;;;;;;5.43;4.67;;;;;;;3.98;68.75;152385.16;5090038;28;20538;-77
2022/02/14 00:11:30;;;;;;;5.60;4.57;;;;;;;3.96;67.71;152381.31;5105478;28;20955;-77
2022/02/14 00:14:06;;;;;;;4.63;3.63;;;;;;;3.97;66.40;152383.88;5087925;27;20488;-77
2022/02/14 00:16:42;;;;;;;6.07;4.40;;;;;;;4.01;67.87;152392.91;5107916;28;20448;-77
2022/02/14 00:19:17;;;;;;;6.20;4.17;;;;;;;4.02;67.49;152395.50;5087918;28;20978;-76
2022/02/14 00:21:53;;;;;;;4.60;4.13;;;;;;;3.98;67.83;152386.47;5108238;28;20440;-76
2022/02/14 00:24:30;;;;;;;6.97;4.93;;;;;;;4.00;68.62;152390.31;5106950;28;20447;-76
2022/02/14 00:27:07;;;;;;;6.27;4.20;;;;;;;4.00;69.07;152390.31;5106356;28;21042;-76
2022/02/14 00:29:43;;;;;;;4.80;3.80;;;;;;;4.05;70.23;152403.22;5105470;28;20436;-76
2022/02/14 00:32:20;;;;;;;4.73;3.80;;;;;;;4.00;69.55;152390.31;5105893;28;20825;-76
2022/02/14 00:34:56;;;;;;;7.33;4.13;;;;;;;3.99;68.59;152387.75;5104584;28;20451;-76
2022/02/14 00:37:32;;;;;;;5.30;4.40;;;;;;;4.00;71.23;152390.31;5106642;28;20527;-76
2022/02/14 00:40:10;;;;;;;8.43;5.00;;;;;;;4.02;68.34;152396.78;5106370;28;20449;-76
2022/02/14 00:42:46;;;;;;;5.83;4.60;;;;;;;4.02;70.13;152395.50;5106562;28;20523;-76
2022/02/14 00:45:21;;;;;;;4.10;3.40;;;;;;;4.00;69.22;152390.31;5091365;28;20558;-76
2022/02/14 00:47:57;;;;;;;5.40;4.10;;;;;;;3.91;68.61;152367.16;5107634;28;20483;-76
2022/02/14 00:50:33;;;;;;;4.67;4.17;;;;;;;3.99;71.47;152389.06;5103216;28;20505;-76
2022/02/14 00:53:09;;;;;;;5.57;4.53;;;;;;;4.01;67.00;152392.91;5104975;28;20443;-76
2022/02/14 00:55:46;;;;;;;5.47;4.67;;;;;;;4.01;69.07;152392.91;5108248;28;20546;-76
2022/02/14 00:58:22;;;;;;;5.83;4.40;;;;;;;4.11;69.26;152418.66;5109061;28;20950;-76
2022/02/14 01:00:57;;;;;;;8.17;4.67;;;;;;;4.10;68.26;152416.09;5108077;28;20436;-76
2022/02/14 01:03:33;;;;;;;4.80;4.07;;;;;;;4.11;69.99;152418.66;5087248;28;20479;-76
2022/02/14 01:06:09;;;;;;;5.07;3.93;;;;;;;4.10;67.49;152416.09;5105240;28;20520;-76
2022/02/14 01:08:44;;;;;;;7.93;4.97;;;;;;;4.05;70.97;152404.47;5088181;28;20538;-77
2022/02/14 01:11:22;;;;;;;5.00;3.80;;;;;;;4.09;68.65;152414.81;5088825;28;20444;-76
2022/02/14 01:13:58;;;;;;;6.47;4.50;;;;;;;4.11;66.40;152419.94;5092230;28;20445;-76
2022/02/14 01:16:33;;;;;;;8.43;4.30;;;;;;;4.14;65.45;152427.69;5104707;28;20452;-76
2022/02/14 01:19:09;;;;;;;4.10;3.70;;;;;;;4.16;66.82;152432.81;5094671;28;20467;-77
2022/02/14 01:21:45;;;;;;;5.23;4.20;;;;;;;4.10;70.43;152416.09;5102660;28;20464;-76
2022/02/14 01:24:20;;;;;;;4.37;3.97;;;;;;;4.11;68.80;152418.66;5105740;28;20432;-76
2022/02/14 01:26:57;;;;;;;5.50;4.03;;;;;;;4.08;66.71;152410.91;5097953;28;20469;-76
2022/02/14 01:29:33;;;;;;;7.50;4.23;;;;;;;4.11;72.25;152418.66;5105643;28;20424;-76
2022/02/14 01:32:09;;;;;;;6.37;4.17;;;;;;;4.11;69.38;152418.66;5103889;28;20820;-76
2022/02/14 01:34:44;;;;;;;3.70;3.17;;;;;;;4.10;67.56;152416.09;5091166;28;20444;-76
2022/02/14 01:37:20;;;;;;;4.90;3.87;;;;;;;4.10;65.45;152416.09;5090882;28;20444;-76
2022/02/14 01:39:56;;;;;;;7.23;4.03;;;;;;;4.15;68.24;152430.28;5102370;28;20432;-76
2022/02/14 01:42:33;;;;;;;5.80;4.23;;;;;;;4.21;67.80;152445.69;5091720;28;20826;-76
2022/02/14 01:45:10;;;;;;;4.10;3.57;;;;;;;4.19;64.62;152440.56;5102423;28;20506;-76
2022/02/14 01:47:45;;;;;;;3.77;3.37;;;;;;;4.18;65.50;152436.72;5103275;28;20554;-76
2022/02/14 01:50:21;;;;;;;5.10;3.40;;;;;;;4.23;63.60;152449.59;5102310;28;20457;-76
2022/02/14 01:52:56;;;;;;;4.60;3.43;;;;;;;4.16;65.27;152431.53;5097701;28;20448;-76
2022/02/14 01:55:33;;;;;;;4.30;3.87;;;;;;;4.19;64.13;152440.56;5085921;28;20542;-76
2022/02/14 01:58:10;;;;;;;5.60;3.30;;;;;;;4.17;64.90;152434.13;5102497;28;20444;-76
2022/02/14 02:00:48;;;;;;;3.87;3.47;;;;;;;4.17;62.46;152435.41;5103294;28;20440;-76
2022/02/14 02:03:25;;;;;;;5.90;3.90;;;;;;;4.21;63.29;152444.41;5088308;28;20455;-76
2022/02/14 02:06:01;;;;;;;5.17;3.27;;;;;;;4.20;64.32;152441.84;5088518;28;20479;-76
2022/02/14 02:08:37;;;;;;;4.17;3.20;;;;;;;4.18;63.48;152437.97;5105060;28;20468;-76
2022/02/14 02:14:07;;;;;;;6.17;3.57;;;;;;;4.25;64.02;152454.72;5090783;28;20445;-76
2022/02/14 02:16:42;;;;;;;3.30;3.00;;;;;;;4.25;61.74;152456.03;5104312;28;20452;-76
2022/02/14 02:19:18;;;;;;;4.53;3.50;;;;;;;4.28;64.15;152462.47;5107659;28;20459;-76
2022/02/14 02:21:54;;;;;;;5.07;3.83;;;;;;;4.23;64.02;152450.88;5094727;28;20441;-76
2022/02/14 02:24:29;;;;;;;3.50;3.10;;;;;;;4.22;63.59;152448.28;5106146;28;20455;-77
2022/02/14 02:27:06;;;;;;;6.17;3.23;;;;;;;4.21;65.62;152445.69;5106074;28;20566;-76
2022/02/14 02:29:42;;;;;;;3.40;2.63;;;;;;;4.25;63.64;152456.03;5102344;28;20432;-76
2022/02/14 02:32:17;;;;;;;3.63;3.33;;;;;;;4.26;62.74;152457.31;5105388;28;20452;-76
2022/02/14 02:34:53;;;;;;;3.53;3.23;;;;;;;4.24;63.95;152453.44;5092257;28;20440;-76
2022/02/14 02:37:29;;;;;;;3.27;2.77;;;;;;;4.27;63.77;152461.16;5106528;28;20416;-76
2022/02/14 02:40:06;;;;;;;4.47;3.20;;;;;;;4.24;64.03;152452.13;5108139;28;20448;-76
2022/02/14 02:42:43;;;;;;;5.27;3.50;;;;;;;4.25;63.36;152454.72;5100130;28;20477;-76
2022/02/14 02:45:18;;;;;;;4.83;3.40;;;;;;;4.29;61.85;152466.31;5088666;28;20706;-76
2022/02/14 02:47:56;;;;;;;4.60;2.90;;;;;;;4.24;64.75;152453.44;5105435;28;20547;-77
2022/02/14 02:50:31;;;;;;;3.90;3.50;;;;;;;4.23;63.98;152450.88;5104426;28;20985;-76
2022/02/14 02:53:07;;;;;;;3.83;3.20;;;;;;;4.26;64.30;152457.31;5106154;28;20462;-76
2022/02/14 02:55:42;;;;;;;4.00;3.00;;;;;;;4.28;60.68;152462.47;5097360;28;20460;-76
2022/02/14 02:58:19;;;;;;;3.97;3.10;;;;;;;4.23;61.48;152449.59;5088203;28;20433;-76
2022/02/14 03:00:55;;;;;;;4.83;3.00;;;;;;;4.27;66.88;152459.88;5106357;28;20450;-76
2022/02/14 03:03:30;;;;;;;3.27;2.97;;;;;;;4.25;63.50;152456.03;5100594;28;20476;-76
2022/02/14 03:06:06;;;;;;;3.47;2.80;;;;;;;4.23;62.73;152449.59;5100441;28;20447;-76
2022/02/14 03:08:41;;;;;;;4.43;3.30;;;;;;;4.29;60.94;152465.00;5092300;28;20958;-76
2022/02/14 03:11:17;;;;;;;4.30;2.70;;;;;;;4.27;58.94;152459.88;5106625;28;20854;-76
2022/02/14 03:13:54;;;;;;;3.50;2.83;;;;;;;4.23;60.77;152450.88;5105651;28;21157;-77
2022/02/14 03:16:30;;;;;;;2.33;2.13;;;;;;;4.25;61.90;152454.72;5086995;28;20471;-76
2022/02/14 03:19:05;;;;;;;3.50;2.40;;;;;;;4.25;60.30;152454.72;5087802;28;20436;-76
2022/02/14 03:21:41;;;;;;;3.37;3.00;;;;;;;4.21;62.36;152444.41;5102519;28;20473;-76
2022/02/14 03:24:16;;;;;;;3.80;2.40;;;;;;;4.17;59.85;152435.41;5101280;28;20456;-76
2022/02/14 03:26:52;;;;;;;3.73;2.47;;;;;;;4.17;58.74;152434.13;5105225;28;20859;-76
2022/02/14 03:29:29;;;;;;;4.13;2.60;;;;;;;4.18;64.86;152436.72;5106527;28;20463;-76
2022/02/14 03:32:05;;;;;;;4.37;2.33;;;;;;;4.21;60.09;152444.41;5094220;28;20447;-76
2022/02/14 03:34:41;;;;;;;3.50;2.70;;;;;;;4.18;58.09;152436.72;5090605;28;20448;-76
2022/02/14 03:37:17;;;;;;;3.50;2.27;;;;;;;4.20;61.56;152441.84;5091544;28;20520;-76
2022/02/14 03:39:53;;;;;;;3.00;2.60;;;;;;;4.17;58.71;152434.13;5093646;28;20456;-76
2022/02/14 03:42:28;;;;;;;3.23;2.63;;;;;;;4.14;60.40;152427.69;5103355;28;20448;-76
2022/02/14 03:45:06;;;;;;;3.80;2.70;;;;;;;4.15;62.67;152430.28;5090419;28;20452;-76
2022/02/14 03:47:41;;;;;;;4.30;2.97;;;;;;;4.15;61.27;152428.97;5111447;28;20459;-76
2022/02/14 03:50:17;;;;;;;2.90;1.90;;;;;;;4.10;62.68;152416.09;5110939;28;20439;-76
2022/02/14 03:52:53;;;;;;;2.40;2.20;;;;;;;4.04;61.37;152400.63;5108430;28;20432;-77
2022/02/14 03:55:29;;;;;;;4.77;2.63;;;;;;;4.04;63.49;152400.63;5087081;28;20435;-77
2022/02/14 03:58:05;;;;;;;3.63;2.90;;;;;;;4.02;65.85;152395.50;5092122;28;20451;-77
2022/02/14 04:00:42;;;;;;;2.90;2.43;;;;;;;3.99;62.21;152387.75;5104741;28;20447;-77
2022/02/14 04:03:18;;;;;;;7.73;2.63;;;;;;;3.93;62.91;152373.59;5094251;28;20444;-77
2022/02/14 04:05:54;;;;;;;4.90;2.73;;;;;;;3.94;61.62;152376.19;5101180;28;20444;-77
2022/02/14 04:08:29;;;;;;;3.53;2.13;;;;;;;3.92;66.24;152371.00;5110441;28;20459;-76
2022/02/14 04:11:05;;;;;;;2.37;2.17;;;;;;;3.87;64.08;152356.81;5094236;28;20459;-76
2022/02/14 04:13:41;;;;;;;3.40;2.53;;;;;;;3.87;64.29;152356.81;5094112;28;20447;-77
2022/02/14 04:16:18;;;;;;;4.60;3.30;;;;;;;3.80;64.41;152340.13;5102720;28;20476;-76
2022/02/14 04:18:53;;;;;;;2.33;2.13;;;;;;;3.83;61.57;152346.56;5105632;27;20857;-77
2022/02/14 04:21:29;;;;;;;3.10;2.80;;;;;;;3.79;68.36;152336.22;5106439;28;20958;-77
2022/02/14 04:24:05;;;;;;;5.03;3.10;;;;;;;3.74;65.26;152324.66;5107714;28;20439;-77
2022/02/14 04:26:40;;;;;;;3.53;2.80;;;;;;;3.72;62.06;152319.50;5109629;28;20534;-77
2022/02/14 04:29:16;;;;;;;3.20;2.30;;;;;;;3.73;64.70;152320.81;5109071;28;20491;-76
2022/02/14 04:31:53;;;;;;;2.97;2.37;;;;;;;3.70;64.67;152314.38;5104902;28;20462;-77
2022/02/14 04:34:29;;;;;;;3.03;2.73;;;;;;;3.65;66.79;152302.75;5093464;28;20446;-77
2022/02/14 04:37:05;;;;;;;2.67;2.47;;;;;;;3.63;63.53;152297.63;5106303;28;20444;-77
2022/02/14 04:39:40;;;;;;;3.90;2.57;;;;;;;3.65;68.10;152302.75;5106108;28;20516;-77
2022/02/14 04:42:15;;;;;;;3.20;2.77;;;;;;;3.64;66.46;152298.91;5108496;28;20439;-77
2022/02/14 04:44:51;;;;;;;3.93;2.63;;;;;;;3.60;64.64;152289.88;5106735;28;20448;-76
2022/02/14 04:47:28;;;;;;;2.50;2.23;;;;;;;3.54;67.25;152273.19;5110275;27;20937;-77
2022/02/14 04:50:05;;;;;;;3.47;2.47;;;;;;;3.55;67.06;152277.03;5109845;28;20836;-77
2022/02/14 04:52:40;;;;;;;3.37;2.50;;;;;;;3.54;66.84;152273.19;5109657;28;20519;-76
2022/02/14 04:55:15;;;;;;;5.00;2.70;;;;;;;3.53;65.14;152271.88;5089856;28;20445;-76
2022/02/14 04:57:51;;;;;;;3.17;2.30;;;;;;;3.55;66.89;152277.03;5083271;28;20445;-77
2022/02/14 05:00:27;;;;;;;2.97;2.17;;;;;;;3.50;67.63;152262.84;5108756;28;20443;-76
2022/02/14 05:03:04;;;;;;;4.07;2.73;;;;;;;3.47;67.16;152256.44;5109104;28;20440;-77
2022/02/14 05:05:39;;;;;;;2.67;2.47;;;;;;;3.47;62.82;152256.44;5092934;28;20441;-76
2022/02/14 05:08:15;;;;;;;3.90;2.60;;;;;;;3.53;62.05;152271.88;5101745;28;20460;-76
2022/02/14 05:10:50;;;;;;;3.10;2.43;;;;;;;3.53;60.22;152271.88;5103204;28;20529;-77
2022/02/14 05:13:26;;;;;;;3.10;2.77;;;;;;;3.56;64.97;152279.63;5086111;28;20427;-77
2022/02/14 05:16:01;;;;;;;3.27;2.60;;;;;;;3.51;64.01;152266.75;5108876;28;20452;-77
2022/02/14 05:18:38;;;;;;;3.23;2.87;;;;;;;3.50;64.61;152262.84;5108517;28;20514;-77
2022/02/14 05:21:14;;;;;;;3.57;2.30;;;;;;;3.49;66.73;152261.59;5089424;28;20919;-77
2022/02/14 05:23:51;;;;;;;4.50;2.60;;;;;;;3.46;67.89;152253.88;5093465;28;20857;-76
2022/02/14 05:26:27;;;;;;;7.17;2.90;;;;;;;3.42;63.79;152242.25;5105152;28;20439;-75
2022/02/14 05:29:02;;;;;;;4.13;2.70;;;;;;;3.41;67.59;152239.72;5105628;28;20474;-75
2022/02/14 05:31:38;;;;;;;3.07;2.53;;;;;;;3.37;65.17;152230.69;5108980;28;20444;-76
2022/02/14 05:34:15;;;;;;;5.40;2.60;;;;;;;3.35;68.10;152225.56;5090323;28;20942;-75
2022/02/14 05:36:50;;;;;;;4.03;2.70;;;;;;;3.33;66.79;152220.41;5105258;28;20440;-75
2022/02/14 05:39:26;;;;;;;3.87;2.80;;;;;;;3.27;68.88;152204.97;5107879;28;20435;-77
2022/02/14 05:42:01;;;;;;;3.77;2.70;;;;;;;3.26;66.42;152201.06;5110018;28;20445;-77
2022/02/14 05:44:37;;;;;;;6.33;2.50;;;;;;;3.32;62.64;152216.53;5100303;28;20440;-75
2022/02/14 05:47:13;;;;;;;4.77;2.33;;;;;;;3.39;60.73;152234.59;5099008;28;20452;-77
2022/02/14 05:49:50;;;;;;;4.70;2.53;;;;;;;3.45;59.02;152251.28;5106065;28;20770;-77
2022/02/14 05:52:25;;;;;;;3.40;2.67;;;;;;;3.46;60.05;152253.88;5105534;28;20448;-77
2022/02/14 05:55:01;;;;;;;2.80;2.43;;;;;;;3.47;59.43;152255.13;5091274;28;20934;-77
2022/02/14 05:57:37;;;;;;;2.90;2.60;;;;;;;3.47;59.53;152255.13;5107978;28;20440;-77
2022/02/14 06:00:14;;;;;;;4.20;2.50;;;;;;;3.48;60.23;152259.00;5101313;28;20452;-77
2022/02/14 06:02:50;;;;;;;3.53;2.47;;;;;;;3.45;59.13;152251.28;5107558;28;20452;-77
2022/02/14 06:05:27;;;;;;;2.27;2.07;;;;;;;3.47;60.15;152255.13;5105806;28;20474;-77
2022/02/14 06:08:03;;;;;;;2.20;2.00;;;;;;;3.44;63.00;152247.44;5087345;28;20492;-76
2022/02/14 06:10:39;;;;;;;3.00;2.53;;;;;;;3.43;61.03;152246.16;5088765;28;20453;-77
2022/02/14 06:13:15;;;;;;;3.40;2.50;;;;;;;3.45;62.44;152250.00;5091250;28;20535;-77
2022/02/14 06:15:54;;;;;;;3.83;2.47;;;;;;;3.46;63.82;152252.59;5088330;28;20444;-77
2022/02/14 06:18:30;;;;;;;4.40;2.60;;;;;;;3.47;59.95;152256.44;5092155;28;20440;-77
2022/02/14 06:21:07;;;;;;;4.13;2.60;;;;;;;3.53;60.24;152271.88;5103705;28;20475;-77
2022/02/14 06:23:43;;;;;;;3.53;2.63;;;;;;;3.51;62.37;152265.44;5085463;28;20448;-77
2022/02/14 06:26:19;;;;;;;4.10;3.20;;;;;;;3.49;60.16;152261.59;5103286;28;20468;-76
2022/02/14 06:28:55;;;;;;;4.90;3.17;;;;;;;3.50;62.14;152262.84;5087307;28;20460;-77
2022/02/14 06:31:31;;;;;;;5.20;3.17;;;;;;;3.57;59.52;152280.91;5090348;28;20452;-76
2022/02/14 06:34:06;;;;;;;3.90;2.60;;;;;;;3.58;64.46;152283.47;5119609;27;20762;-77
2022/02/14 06:36:43;;;;;;;3.43;2.63;;;;;;;3.63;59.11;152296.31;5090367;28;20448;-77
2022/02/14 06:39:19;;;;;;;3.33;2.63;;;;;;;3.65;59.09;152302.75;5102264;28;20429;-76
2022/02/14 06:41:54;;;;;;;4.73;2.37;;;;;;;3.65;58.13;152302.75;5109204;28;20542;-77
2022/02/14 06:44:30;;;;;;;3.30;2.30;;;;;;;3.66;62.65;152304.06;5095889;28;20476;-77
2022/02/14 06:47:06;;;;;;;2.83;2.33;;;;;;;3.66;59.33;152304.06;5086414;28;20448;-76
2022/02/14 06:49:41;;;;;;;3.60;2.53;;;;;;;3.68;59.23;152310.50;5124473;27;20463;-76
2022/02/14 06:52:18;;;;;;;4.10;2.10;;;;;;;3.67;58.34;152307.94;5089182;28;20522;-77
2022/02/14 06:54:54;;;;;;;3.60;2.57;;;;;;;3.73;64.60;152322.13;5102586;28;20444;-76
2022/02/14 06:57:31;;;;;;;4.13;2.77;;;;;;;3.71;60.07;152316.91;5097157;28;20440;-77
2022/02/14 07:00:10;;;;;;;3.90;2.70;;;;;;;3.73;61.67;152320.81;5085700;28;20456;-76
2022/02/14 07:02:46;;;;;;;2.80;2.50;;;;;;;3.71;62.40;152315.69;5097573;28;20546;-77
2022/02/14 07:05:24;;;;;;;4.30;2.40;;;;;;;3.67;59.29;152307.94;5106502;28;20456;-76
2022/02/14 07:08:02;;;;;;;3.80;2.77;;;;;;;3.68;61.19;152310.50;5101030;28;20444;-76
2022/02/14 07:10:38;;;;;;;3.30;2.10;;;;;;;3.73;59.10;152320.81;5082670;28;20956;-77
2022/02/14 07:13:13;;;;;;;3.00;2.60;;;;;;;3.74;59.06;152323.34;5102792;28;20448;-77
2022/02/14 07:15:50;;;;;;;4.23;2.80;;;;;;;3.79;60.75;152337.53;5102853;28;20453;-77
2022/02/14 07:18:25;;;;;;;3.03;2.50;;;;;;;3.80;59.61;152340.13;5083384;28;20942;-77
2022/02/14 07:21:01;;;;;;;3.80;2.40;;;;;;;3.80;62.92;152338.81;5101418;28;20513;-77
2022/02/14 07:23:38;;;;;;;4.73;2.80;;;;;;;3.76;63.10;152329.78;5095829;28;20459;-76
2022/02/14 07:26:13;;;;;;;5.50;3.03;;;;;;;3.75;62.75;152327.25;5097962;28;20854;-76
2022/02/14 07:28:49;;;;;;;4.50;2.70;;;;;;;3.78;61.49;152333.69;5101021;28;20456;-76
2022/02/14 07:31:24;;;;;;;5.60;2.87;;;;;;;3.76;64.45;152329.78;5102966;28;20796;-76
2022/02/14 07:34:00;;;;;;;3.77;2.67;;;;;;;3.77;60.62;152331.09;5091756;28;20447;-76
2022/02/14 07:36:36;;;;;;;3.50;2.70;;;;;;;4.07;64.00;152409.66;5099728;28;20974;-76
2022/02/14 07:39:13;;;;;;;6.00;2.60;;;;;;;4.36;63.36;152481.78;5090945;28;20451;-76
2022/02/14 07:41:50;;;;;;;6.70;2.57;;;;;;;4.66;65.16;152559.09;5102581;28;20472;-76
2022/02/14 07:44:27;;;;;;;3.40;2.60;;;;;;;5.08;57.78;152666.03;5102960;28;20981;-76
2022/02/14 07:47:02;;;;;;;6.43;3.07;;;;;;;5.32;60.26;152729.16;5103734;28;20455;-76
2022/02/14 07:49:38;;;;;;;4.50;2.70;;;;;;;5.63;57.59;152806.56;5106227;28;20464;-76
2022/02/14 07:52:13;;;;;;;3.83;2.53;;;;;;;5.96;55.10;152893.00;5084564;28;20950;-77
2022/02/14 07:54:51;;;;;;;5.20;2.60;;;;;;;6.29;54.68;152975.56;5100074;28;20444;-76
2022/02/14 07:57:26;;;;;;;4.20;2.67;;;;;;;6.51;53.35;153033.63;5096432;28;20436;-76
2022/02/14 08:00:03;;;;;;;4.37;2.80;;;;;;;6.73;54.72;153089.13;5101959;28;20973;-76
2022/02/14 08:02:47;;;;;;;5.37;2.57;;;;;;;6.87;51.92;153125.28;5101017;28;20448;-76
2022/02/14 08:05:25;;;;;;;3.33;2.30;;;;;;;7.08;51.07;153178.19;5089156;28;20465;-77
2022/02/14 08:08:00;;;;;;;4.40;2.80;;;;;;;7.21;51.83;153213.06;5118828;28;20447;-76
2022/02/14 08:10:37;;;;;;;2.40;2.10;;;;;;;7.27;51.37;153228.56;5099032;28;20555;-76
2022/02/14 08:13:13;;;;;;;3.93;2.27;;;;;;;7.34;50.38;153246.63;5100690;27;20449;-76
2022/02/14 08:15:49;;;;;;;8.03;2.90;;;;;;;7.39;51.51;153257.00;5105873;28;20455;-77
2022/02/14 08:18:24;;;;;;;3.70;2.57;;;;;;;7.46;51.05;153275.06;5106430;28;20463;-76
2022/02/14 08:21:02;;;;;;;4.57;3.23;;;;;;;7.58;50.76;153306.03;5102962;28;20487;-76
2022/02/14 08:23:37;;;;;;;3.70;2.87;;;;;;;7.80;50.14;153362.88;5097572;28;20821;-76
2022/02/14 08:26:14;;;;;;;5.93;3.10;;;;;;;7.80;50.15;153362.88;5098661;28;20468;-76
2022/02/14 08:28:50;;;;;;;4.27;2.63;;;;;;;7.69;52.09;153334.47;5105288;28;20471;-77
2022/02/14 08:31:25;;;;;;;4.47;2.77;;;;;;;7.71;50.68;153339.63;5090394;28;20554;-76
2022/02/14 08:34:03;;;;;;;4.13;2.37;;;;;;;7.68;50.65;153331.84;5088285;28;20810;-76
2022/02/14 08:36:38;;;;;;;5.03;2.90;;;;;;;7.71;50.89;153340.91;5103231;28;20429;-76
2022/02/14 08:39:14;;;;;;;4.10;3.00;;;;;;;7.69;52.42;153334.47;5098320;28;20440;-76
2022/02/14 08:41:51;;;;;;;8.10;3.40;;;;;;;7.76;50.54;153352.53;5090973;28;20452;-76
2022/02/14 08:44:26;;;;;;;4.53;2.47;;;;;;;7.88;52.71;153384.88;5101076;28;20474;-76
2022/02/14 08:47:02;;;;;;;9.10;2.87;;;;;;;7.89;50.63;153386.13;5106624;28;20828;-76
2022/02/14 08:49:37;;;;;;;5.60;2.87;;;;;;;8.11;49.80;153441.69;5087772;28;20464;-77
2022/02/14 08:52:13;;;;;;;5.27;2.63;;;;;;;8.11;49.20;153443.00;5101990;28;20447;-76
2022/02/14 08:54:48;;;;;;;7.43;3.07;;;;;;;8.10;50.15;153440.38;5106273;27;20794;-76
2022/02/14 08:57:26;;;;;;;2.90;2.50;;;;;;;8.06;52.97;153428.75;5102522;28;20447;-76
2022/02/14 09:00:01;;;;;;;5.70;3.10;;;;;;;8.11;51.99;153443.00;5088881;28;20455;-77
2022/02/14 09:02:37;;;;;;;7.90;2.90;;;;;;;8.10;51.16;153440.38;5087083;28;20448;-77
2022/02/14 09:05:12;;;;;;;4.80;3.17;;;;;;;8.40;50.35;153518.00;5105123;28;20456;-76
2022/02/14 09:07:48;;;;;;;4.03;2.97;;;;;;;8.37;49.46;153508.94;5100136;28;20974;-76
2022/02/14 09:10:24;;;;;;;4.33;2.63;;;;;;;8.48;50.11;153538.69;5108226;28;20472;-77
2022/02/14 09:13:00;;;;;;;11.13;4.30;;;;;;;8.61;49.81;153569.69;5107737;28;20448;-77
2022/02/14 09:15:37;;;;;;;4.40;3.23;;;;;;;8.71;49.18;153595.56;5090741;28;20452;-77
2022/02/14 09:18:13;;;;;;;4.33;2.90;;;;;;;8.90;48.90;153645.97;5092036;28;20926;-77
2022/02/14 09:20:48;;;;;;;8.83;3.20;;;;;;;8.77;50.12;153612.34;5104306;28;20452;-76
2022/02/14 09:23:24;;;;;;;4.33;2.60;;;;;;;9.11;50.61;153698.97;5101425;28;20444;-76
2022/02/14 09:26:00;;;;;;;4.50;2.90;;;;;;;9.12;48.91;153701.59;5098475;28;20787;-77
2022/02/14 09:28:37;;;;;;;4.57;3.07;;;;;;;9.19;49.00;153719.69;5104779;28;20436;-77
2022/02/14 09:31:12;;;;;;;5.83;2.63;;;;;;;9.23;49.13;153730.03;5085435;28;20468;-77
2022/02/14 09:33:48;;;;;;;6.47;3.30;;;;;;;9.19;49.89;153720.97;5104707;28;20436;-77
2022/02/14 09:36:25;;;;;;;6.53;3.23;;;;;;;9.19;49.73;153719.69;5092034;27;20455;-77
2022/02/14 09:39:01;;;;;;;6.50;3.93;;;;;;;9.19;51.99;153719.69;5102366;28;20511;-77
2022/02/14 09:41:37;;;;;;;7.10;3.23;;;;;;;9.28;50.20;153742.97;5094365;28;20462;-77
2022/02/14 09:44:18;;;;;;;5.30;3.10;;;;;;;9.34;50.05;153757.22;5105907;28;20536;-77
2022/02/14 09:46:55;;;;;;;3.37;2.70;;;;;;;9.36;50.12;153762.38;5116865;27;20437;-77
2022/02/14 09:49:31;;;;;;;5.70;2.87;;;;;;;9.47;49.56;153792.13;5105507;28;20954;-77
2022/02/14 09:52:07;;;;;;;12.40;3.10;;;;;;;9.84;49.41;153885.28;5085092;28;20444;-77
2022/02/14 09:54:42;;;;;;;7.40;3.10;;;;;;;9.91;49.84;153903.38;5103114;28;20456;-77
2022/02/14 09:57:19;;;;;;;3.27;2.60;;;;;;;9.95;49.09;153913.75;5100683;28;20441;-77
2022/02/14 09:59:56;;;;;;;5.20;2.57;;;;;;;9.91;50.33;153903.38;5105293;28;20449;-77
2022/02/14 10:02:32;;;;;;;4.27;2.43;;;;;;;10.01;49.45;153930.56;5082351;28;20437;-77
2022/02/14 10:05:12;;;;;;;4.80;2.90;;;;;;;9.99;50.47;153924.09;5089330;28;20547;-76
2022/02/14 10:07:50;;;;;;;4.57;2.70;;;;;;;10.14;50.52;153963.00;5103646;28;20437;-76
2022/02/14 10:10:26;;;;;;;2.93;2.50;;;;;;;10.08;52.25;153947.41;5082201;28;20480;-76
2022/02/14 10:13:02;;;;;;;6.17;3.30;;;;;;;10.08;50.99;153947.41;5090784;28;20460;-76
2022/02/14 10:15:49;;;;;;;3.63;3.10;;;;;;;10.27;50.67;153996.66;5102488;28;20441;-76
2022/02/14 10:18:30;;;;;;;3.43;3.07;;;;;;;10.25;51.04;153991.44;5103466;28;20443;-76
2022/02/14 10:21:17;;;;;;;6.40;3.30;;;;;;;10.11;53.55;153955.19;5089697;28;21030;-76
2022/02/14 10:24:05;;;;;;;3.13;2.20;;;;;;;10.21;52.39;153981.09;5089557;28;20445;-76
2022/02/14 10:26:45;;;;;;;6.73;2.90;;;;;;;10.28;52.29;154000.50;5090499;28;20497;-77
2022/02/14 10:29:23;;;;;;;6.70;3.00;;;;;;;10.37;52.93;154022.53;5104071;28;20485;-76
2022/02/14 10:32:02;;;;;;;7.80;3.10;;;;;;;10.36;53.56;154021.22;5086789;28;20459;-76
2022/02/14 10:34:39;;;;;;;4.57;2.60;;;;;;;10.45;53.86;154043.25;5087745;28;20437;-77
2022/02/14 10:37:17;;;;;;;4.60;2.17;;;;;;;10.67;53.33;154098.94;5105089;28;20455;-77
2022/02/14 10:39:58;;;;;;;5.17;2.80;;;;;;;10.79;53.01;154130.00;5083168;28;20447;-78
2022/02/14 10:42:35;;;;;;;11.03;2.50;;;;;;;10.74;56.77;154118.34;5088153;28;20937;-76
2022/02/14 10:45:13;;;;;;;2.27;1.97;;;;;;;10.60;57.48;154082.06;5085151;28;20452;-76
2022/02/14 10:47:50;;;;;;;4.00;2.40;;;;;;;10.65;56.42;154095.03;5104416;28;20960;-76
2022/02/14 10:50:26;;;;;;;7.20;2.50;;;;;;;10.77;56.40;154126.13;5101381;28;20480;-76
2022/02/14 10:53:04;;;;;;;5.37;2.00;;;;;;;10.77;57.07;154126.13;5098182;28;20526;-77
2022/02/14 10:55:42;;;;;;;3.90;2.00;;;;;;;10.81;56.86;154135.16;5088560;28;20506;-77
2022/02/14 10:58:17;;;;;;;3.07;2.73;;;;;;;10.87;56.82;154152.03;5103952;28;20452;-77
2022/02/14 11:00:54;;;;;;;5.90;2.60;;;;;;;10.85;59.22;154145.53;5087975;28;20526;-76
2022/02/14 11:03:31;;;;;;;3.70;1.80;;;;;;;10.85;59.56;154145.53;5099689;28;20443;-76
2022/02/14 11:06:07;;;;;;;4.07;2.27;;;;;;;10.90;58.53;154158.50;5099016;28;20505;-77
2022/02/14 11:08:44;;;;;;;4.33;3.10;;;;;;;10.99;59.82;154183.09;5106386;28;20436;-77
2022/02/14 11:11:21;;;;;;;3.30;2.50;;;;;;;10.96;58.87;154175.31;5085237;28;20501;-77
2022/02/14 11:13:58;;;;;;;3.50;2.23;;;;;;;10.95;59.62;154172.75;5087973;28;20586;-77
2022/02/14 11:16:41;;;;;;;5.93;2.63;;;;;;;11.08;57.58;154203.81;5099248;28;20440;-77
2022/02/14 11:19:19;;;;;;;11.67;3.97;;;;;;;11.17;58.77;154227.16;5102082;28;20437;-77
2022/02/14 11:21:54;;;;;;;5.60;2.13;;;;;;;11.26;59.32;154251.75;5103296;28;20547;-77
2022/02/14 11:24:32;;;;;;;3.47;2.23;;;;;;;11.22;61.86;154240.09;5097939;28;20436;-77
2022/02/14 11:27:12;;;;;;;3.13;2.47;;;;;;;11.18;60.57;154229.72;5098028;28;21069;-77
2022/02/14 11:29:51;;;;;;;3.20;1.83;;;;;;;11.17;60.92;154227.16;5087815;28;20838;-77
2022/02/14 11:32:28;;;;;;;4.90;2.03;;;;;;;11.27;60.47;154253.03;5082429;28;20531;-77
2022/02/14 11:35:08;;;;;;;3.63;1.40;;;;;;;11.19;63.22;154232.31;5103262;28;20447;-77
2022/02/14 11:37:49;;;;;;;2.50;1.77;;;;;;;11.25;61.68;154247.88;5105192;28;20437;-77
2022/02/14 11:40:42;;;;;;;2.70;1.70;;;;;;;11.13;63.06;154218.06;5105175;28;20474;-77
2022/02/14 11:43:22;;;;;;;2.53;1.57;;;;;;;11.16;64.42;154224.53;5087356;28;20968;-77
2022/02/14 11:46:21;;;;;;;5.60;2.00;;;;;;;11.22;63.19;154240.09;5102352;28;20876;-77
2022/02/14 11:49:15;;;;;;;4.93;2.20;;;;;;;11.08;62.32;154205.13;5110366;28;20437;-78
2022/02/14 11:51:54;;;;;;;3.17;1.70;;;;;;;11.05;64.59;154196.03;5107063;28;20952;-78
2022/02/14 11:54:32;;;;;;;5.20;2.10;;;;;;;11.01;64.04;154188.25;5103297;28;20436;-78
2022/02/14 11:57:27;;;;;;;3.37;2.00;;;;;;;11.05;62.77;154196.03;5109205;28;21050;-78
2022/02/14 12:00:27;;;;;;;2.70;1.80;;;;;;;11.06;63.18;154199.94;5106498;28;20541;-78
2022/02/14 12:03:18;;;;;;;6.60;2.20;;;;;;;11.02;63.74;154189.56;5113879;27;20768;-78
2022/02/14 12:06:00;;;;;;;3.63;1.90;;;;;;;10.97;63.57;154177.91;5105251;28;20452;-78
2022/02/14 12:08:59;;;;;;;2.73;1.50;;;;;;;11.04;68.46;154193.47;5095274;28;20482;-78
2022/02/14 12:11:45;;;;;;;2.47;1.63;;;;;;;11.09;62.31;154207.72;5099341;28;20467;-78
2022/02/14 12:14:21;;;;;;;3.07;1.70;;;;;;;11.04;65.98;154193.47;5109063;28;20439;-78
2022/02/14 12:22:43;;;;;;;2.00;1.40;;;;;;;11.11;63.25;154212.88;5095103;28;20433;-78
2022/02/14 12:25:20;;;;;;;3.30;1.77;;;;;;;11.08;63.84;154205.13;5089465;28;20865;-78